sensor_id;sensor_type;location;lat;lon;timestamp;pressure;altitude;pressure_sealevel;temperature;humidity
20955;BME280;10636;19.390;-99.256;2023-04-19T00:01:20;77536.38;;;26.25;27.05
20955;BME280;10636;19.390;-99.256;2023-04-19T00:03:54;77532.34;;;26.24;26.96
20955;BME280;10636;19.390;-99.256;2023-04-19T00:06:25;77523.53;;;26.22;26.84
20955;BME280;10636;19.390;-99.256;2023-04-19T00:08:58;77532.28;;;26.22;26.92
20955;BME280;10636;19.390;-99.256;2023-04-19T00:11:27;77540.41;;;26.24;26.96
20955;BME280;10636;19.390;-99.256;2023-04-19T00:13:55;77539.72;;;26.24;26.76
20955;BME280;10636;19.390;-99.256;2023-04-19T00:16:24;77536.28;;;26.21;26.81
20955;BME280;10636;19.390;-99.256;2023-04-19T00:18:52;77538.97;;;26.21;26.85
20955;BME280;10636;19.390;-99.256;2023-04-19T00:21:29;77542.97;;;26.20;26.72
20955;BME280;10636;19.390;-99.256;2023-04-19T00:23:58;77546.97;;;26.19;26.83
20955;BME280;10636;19.390;-99.256;2023-04-19T00:26:26;77550.34;;;26.20;26.73
20955;BME280;10636;19.390;-99.256;2023-04-19T00:28:55;77550.31;;;26.18;26.91
20955;BME280;10636;19.390;-99.256;2023-04-19T00:31:23;77555.69;;;26.18;26.84
20955;BME280;10636;19.390;-99.256;2023-04-19T00:33:52;77552.31;;;26.17;26.86
20955;BME280;10636;19.390;-99.256;2023-04-19T00:36:20;77550.94;;;26.16;26.67
20955;BME280;10636;19.390;-99.256;2023-04-19T00:38:50;77571.03;;;26.15;26.65
20955;BME280;10636;19.390;-99.256;2023-04-19T00:41:22;77569.69;;;26.14;26.57
20955;BME280;10636;19.390;-99.256;2023-04-19T00:43:53;77569.63;;;26.12;26.52
20955;BME280;10636;19.390;-99.256;2023-04-19T00:46:22;77572.31;;;26.12;26.35
20955;BME280;10636;19.390;-99.256;2023-04-19T00:48:51;77576.34;;;26.11;26.61
20955;BME280;10636;19.390;-99.256;2023-04-19T00:51:20;77580.34;;;26.10;26.37
20955;BME280;10636;19.390;-99.256;2023-04-19T00:53:51;77583.63;;;26.08;26.44
20955;BME280;10636;19.390;-99.256;2023-04-19T00:56:21;77600.44;;;26.09;26.66
20955;BME280;10636;19.390;-99.256;2023-04-19T00:58:52;77586.97;;;26.07;26.69
20955;BME280;10636;19.390;-99.256;2023-04-19T01:01:21;77596.34;;;26.06;26.51
20955;BME280;10636;19.390;-99.256;2023-04-19T01:03:50;77601.72;;;26.06;26.56
20955;BME280;10636;19.390;-99.256;2023-04-19T01:06:19;77602.28;;;26.02;26.61
20955;BME280;10636;19.390;-99.256;2023-04-19T01:08:48;77609.66;;;26.02;26.68
20955;BME280;10636;19.390;-99.256;2023-04-19T01:11:18;77618.41;;;26.02;26.62
20955;BME280;10636;19.390;-99.256;2023-04-19T01:13:47;77628.41;;;26.00;26.82
20955;BME280;10636;19.390;-99.256;2023-04-19T01:16:16;77614.97;;;26.00;26.76
20955;BME280;10636;19.390;-99.256;2023-04-19T01:18:45;77625.03;;;25.99;26.47
20955;BME280;10636;19.390;-99.256;2023-04-19T01:21:13;77624.25;;;25.95;26.83
20955;BME280;10636;19.390;-99.256;2023-04-19T01:23:44;77633.72;;;25.98;26.96
20955;BME280;10636;19.390;-99.256;2023-04-19T01:26:12;77631.66;;;25.96;26.79
20955;BME280;10636;19.390;-99.256;2023-04-19T01:28:42;77635.66;;;25.95;26.76
20955;BME280;10636;19.390;-99.256;2023-04-19T01:31:11;77638.91;;;25.92;26.79
20955;BME280;10636;19.390;-99.256;2023-04-19T01:33:39;77637.59;;;25.93;26.78
20955;BME280;10636;19.390;-99.256;2023-04-19T01:36:08;77646.97;;;25.92;26.56
20955;BME280;10636;19.390;-99.256;2023-04-19T01:38:37;77640.22;;;25.91;26.82
20955;BME280;10636;19.390;-99.256;2023-04-19T01:41:07;77640.22;;;25.91;26.98
20955;BME280;10636;19.390;-99.256;2023-04-19T01:43:35;77644.16;;;25.88;26.60
20955;BME280;10636;19.390;-99.256;2023-04-19T01:46:04;77651.53;;;25.87;27.36
20955;BME280;10636;19.390;-99.256;2023-04-19T01:48:32;77665.59;;;25.86;26.87
20955;BME280;10636;19.390;-99.256;2023-04-19T01:51:01;77660.22;;;25.86;26.78
20955;BME280;10636;19.390;-99.256;2023-04-19T01:53:29;77663.59;;;25.86;26.85
20955;BME280;10636;19.390;-99.256;2023-04-19T01:55:58;77670.28;;;25.85;26.79
20955;BME280;10636;19.390;-99.256;2023-04-19T01:58:28;77672.91;;;25.83;26.66
20955;BME280;10636;19.390;-99.256;2023-04-19T02:00:57;77668.13;;;25.79;26.89
20955;BME280;10636;19.390;-99.256;2023-04-19T02:03:25;77672.13;;;25.78;26.65
20955;BME280;10636;19.390;-99.256;2023-04-19T02:05:54;77684.22;;;25.79;26.85
20955;BME280;10636;19.390;-99.256;2023-04-19T02:08:23;77680.22;;;25.80;26.41
20955;BME280;10636;19.390;-99.256;2023-04-19T02:10:51;77690.97;;;25.80;26.79
20955;BME280;10636;19.390;-99.256;2023-04-19T02:13:20;77690.28;;;25.80;26.71
20955;BME280;10636;19.390;-99.256;2023-04-19T02:15:50;77702.94;;;25.77;26.31
20955;BME280;10636;19.390;-99.256;2023-04-19T02:18:18;77709.72;;;25.78;26.23
20955;BME280;10636;19.390;-99.256;2023-04-19T02:20:47;77709.72;;;25.78;26.49
20955;BME280;10636;19.390;-99.256;2023-04-19T02:23:15;77697.44;;;25.73;26.25
20955;BME280;10636;19.390;-99.256;2023-04-19T02:25:46;77708.88;;;25.74;26.75
20955;BME280;10636;19.390;-99.256;2023-04-19T02:28:15;77706.91;;;25.74;26.65
20955;BME280;10636;19.390;-99.256;2023-04-19T02:30:44;77713.56;;;25.73;26.93
20955;BME280;10636;19.390;-99.256;2023-04-19T02:33:14;77718.94;;;25.73;26.71
20955;BME280;10636;19.390;-99.256;2023-04-19T02:35:43;77717.53;;;25.72;26.63
20955;BME280;10636;19.390;-99.256;2023-04-19T02:38:12;77725.50;;;25.68;26.65
20955;BME280;10636;19.390;-99.256;2023-04-19T02:40:40;77722.84;;;25.70;26.86
20955;BME280;10636;19.390;-99.256;2023-04-19T02:43:09;77734.28;;;25.71;26.56
20955;BME280;10636;19.390;-99.256;2023-04-19T02:45:38;77718.47;;;25.59;26.17
20955;BME280;10636;19.390;-99.256;2023-04-19T02:48:06;77738.84;;;25.66;26.54
20955;BME280;10636;19.390;-99.256;2023-04-19T02:50:38;77738.91;;;25.68;26.52
20955;BME280;10636;19.390;-99.256;2023-04-19T02:53:06;77756.31;;;25.67;26.40
20955;BME280;10636;19.390;-99.256;2023-04-19T02:55:35;77748.91;;;25.66;26.28
20955;BME280;10636;19.390;-99.256;2023-04-19T02:58:03;77753.53;;;25.63;26.46
20955;BME280;10636;19.390;-99.256;2023-04-19T03:00:32;77752.13;;;25.62;26.64
20955;BME280;10636;19.390;-99.256;2023-04-19T03:03:00;77762.19;;;25.62;26.63
20955;BME280;10636;19.390;-99.256;2023-04-19T03:05:29;77776.25;;;25.60;26.87
20955;BME280;10636;19.390;-99.256;2023-04-19T03:08:00;77774.88;;;25.59;26.81
20955;BME280;10636;19.390;-99.256;2023-04-19T03:10:28;77778.31;;;25.62;26.75
20955;BME280;10636;19.390;-99.256;2023-04-19T03:12:58;77770.06;;;25.55;27.00
20955;BME280;10636;19.390;-99.256;2023-04-19T03:15:27;77783.00;;;25.61;26.91
20955;BME280;10636;19.390;-99.256;2023-04-19T03:17:55;77784.31;;;25.60;27.01
20955;BME280;10636;19.390;-99.256;2023-04-19T03:20:24;77782.25;;;25.59;26.82
20955;BME280;10636;19.390;-99.256;2023-04-19T03:22:53;77788.22;;;25.57;26.96
20955;BME280;10636;19.390;-99.256;2023-04-19T03:25:23;77788.16;;;25.55;27.21
20955;BME280;10636;19.390;-99.256;2023-04-19T03:27:52;77794.84;;;25.54;27.07
20955;BME280;10636;19.390;-99.256;2023-04-19T03:30:20;77800.22;;;25.54;27.19
20955;BME280;10636;19.390;-99.256;2023-04-19T03:32:49;77800.22;;;25.54;27.41
20955;BME280;10636;19.390;-99.256;2023-04-19T03:35:18;77802.81;;;25.52;27.31
20955;BME280;10636;19.390;-99.256;2023-04-19T03:37:48;77804.22;;;25.53;27.20
20955;BME280;10636;19.390;-99.256;2023-04-19T03:40:16;77807.84;;;25.62;27.43
20955;BME280;10636;19.390;-99.256;2023-04-19T03:42:47;77805.78;;;25.60;27.54
20955;BME280;10636;19.390;-99.256;2023-04-19T03:45:15;77815.00;;;25.55;27.34
20955;BME280;10636;19.390;-99.256;2023-04-19T03:47:44;77820.31;;;25.53;27.82
20955;BME280;10636;19.390;-99.256;2023-04-19T03:50:12;77812.19;;;25.51;27.54
20955;BME280;10636;19.390;-99.256;2023-04-19T03:52:41;77826.94;;;25.50;27.31
20955;BME280;10636;19.390;-99.256;2023-04-19T03:55:10;77826.94;;;25.50;27.68
20955;BME280;10636;19.390;-99.256;2023-04-19T03:57:39;77830.88;;;25.47;27.72
20955;BME280;10636;19.390;-99.256;2023-04-19T04:00:10;77833.59;;;25.49;27.70
20955;BME280;10636;19.390;-99.256;2023-04-19T04:02:39;77838.97;;;25.49;27.40
20955;BME280;10636;19.390;-99.256;2023-04-19T04:05:08;77840.28;;;25.48;27.39
20955;BME280;10636;19.390;-99.256;2023-04-19T04:07:38;77840.97;;;25.48;27.27
20955;BME280;10636;19.390;-99.256;2023-04-19T04:10:14;77846.88;;;25.45;27.35
20955;BME280;10636;19.390;-99.256;2023-04-19T04:12:43;77848.94;;;25.46;27.53
20955;BME280;10636;19.390;-99.256;2023-04-19T04:15:13;77855.03;;;25.47;27.64
20955;BME280;10636;19.390;-99.256;2023-04-19T04:17:42;77844.28;;;25.47;27.67
20955;BME280;10636;19.390;-99.256;2023-04-19T04:20:11;77853.63;;;25.46;27.80
20955;BME280;10636;19.390;-99.256;2023-04-19T04:22:42;77854.19;;;25.42;28.10
20955;BME280;10636;19.390;-99.256;2023-04-19T04:25:11;77858.94;;;25.44;28.03
20955;BME280;10636;19.390;-99.256;2023-04-19T04:27:41;77859.63;;;25.44;28.00
20955;BME280;10636;19.390;-99.256;2023-04-19T04:30:12;77858.88;;;25.42;27.75
20955;BME280;10636;19.390;-99.256;2023-04-19T04:32:41;77847.78;;;25.32;27.86
20955;BME280;10636;19.390;-99.256;2023-04-19T04:35:10;77864.31;;;25.44;27.81
20955;BME280;10636;19.390;-99.256;2023-04-19T04:37:39;77865.63;;;25.43;28.08
20955;BME280;10636;19.390;-99.256;2023-04-19T04:40:08;77872.31;;;25.42;28.09
20955;BME280;10636;19.390;-99.256;2023-04-19T04:42:37;77873.59;;;25.41;28.28
20955;BME280;10636;19.390;-99.256;2023-04-19T04:45:07;77874.91;;;25.40;27.74
20955;BME280;10636;19.390;-99.256;2023-04-19T04:47:37;77869.47;;;25.38;28.30
20955;BME280;10636;19.390;-99.256;2023-04-19T04:50:07;77873.38;;;25.35;28.21
20955;BME280;10636;19.390;-99.256;2023-04-19T04:52:36;77874.84;;;25.38;27.99
20955;BME280;10636;19.390;-99.256;2023-04-19T04:55:05;77873.47;;;25.37;28.15
20955;BME280;10636;19.390;-99.256;2023-04-19T04:57:34;77874.84;;;25.38;28.35
20955;BME280;10636;19.390;-99.256;2023-04-19T05:00:06;77872.75;;;25.36;28.17
20955;BME280;10636;19.390;-99.256;2023-04-19T05:02:39;77875.38;;;25.34;28.03
20955;BME280;10636;19.390;-99.256;2023-04-19T05:05:08;77877.31;;;25.32;28.08
20955;BME280;10636;19.390;-99.256;2023-04-19T05:07:38;77878.00;;;25.32;28.58
20955;BME280;10636;19.390;-99.256;2023-04-19T05:10:08;77873.25;;;25.30;28.54
20955;BME280;10636;19.390;-99.256;2023-04-19T05:12:37;77880.59;;;25.30;28.27
20955;BME280;10636;19.390;-99.256;2023-04-19T05:15:06;77880.59;;;25.30;28.30
20955;BME280;10636;19.390;-99.256;2023-04-19T05:17:38;77882.59;;;25.29;28.74
20955;BME280;10636;19.390;-99.256;2023-04-19T05:20:09;77879.91;;;25.29;28.45
20955;BME280;10636;19.390;-99.256;2023-04-19T05:22:37;77886.66;;;25.30;28.55
20955;BME280;10636;19.390;-99.256;2023-04-19T05:25:09;77884.69;;;25.31;28.94
20955;BME280;10636;19.390;-99.256;2023-04-19T05:27:37;77883.91;;;25.28;28.72
20955;BME280;10636;19.390;-99.256;2023-04-19T05:30:07;77883.84;;;25.26;28.91
20955;BME280;10636;19.390;-99.256;2023-04-19T05:32:35;77882.44;;;25.25;28.27
20955;BME280;10636;19.390;-99.256;2023-04-19T05:35:06;77877.72;;;25.24;28.93
20955;BME280;10636;19.390;-99.256;2023-04-19T05:37:35;77880.38;;;25.24;28.56
20955;BME280;10636;19.390;-99.256;2023-04-19T05:40:04;77878.41;;;25.24;28.99
20955;BME280;10636;19.390;-99.256;2023-04-19T05:42:35;77883.63;;;25.20;28.87
20955;BME280;10636;19.390;-99.256;2023-04-19T05:45:04;77889.69;;;25.21;28.77
20955;BME280;10636;19.390;-99.256;2023-04-19T05:47:33;77888.38;;;25.22;28.60
20955;BME280;10636;19.390;-99.256;2023-04-19T05:50:01;77888.97;;;25.20;28.55
20955;BME280;10636;19.390;-99.256;2023-04-19T05:52:31;77878.25;;;25.20;28.74
20955;BME280;10636;19.390;-99.256;2023-04-19T05:55:00;77868.91;;;25.21;28.91
20955;BME280;10636;19.390;-99.256;2023-04-19T05:57:29;77870.81;;;25.19;28.89
20955;BME280;10636;19.390;-99.256;2023-04-19T05:59:57;77875.66;;;25.22;28.84
20955;BME280;10636;19.390;-99.256;2023-04-19T06:02:26;77877.56;;;25.20;29.04
20955;BME280;10636;19.390;-99.256;2023-04-19T06:04:54;77866.13;;;25.19;29.21
20955;BME280;10636;19.390;-99.256;2023-04-19T06:07:23;77871.50;;;25.19;29.28
20955;BME280;10636;19.390;-99.256;2023-04-19T06:09:53;77864.06;;;25.18;29.17
20955;BME280;10636;19.390;-99.256;2023-04-19T06:12:21;77860.66;;;25.15;28.90
20955;BME280;10636;19.390;-99.256;2023-04-19T06:14:50;77860.66;;;25.15;29.39
20955;BME280;10636;19.390;-99.256;2023-04-19T06:17:21;77869.97;;;25.14;29.53
20955;BME280;10636;19.390;-99.256;2023-04-19T06:19:50;77855.72;;;25.10;29.46
20955;BME280;10636;19.390;-99.256;2023-04-19T06:22:21;77862.56;;;25.13;29.21
20955;BME280;10636;19.390;-99.256;2023-04-19T06:24:49;77861.88;;;25.12;29.02
20955;BME280;10636;19.390;-99.256;2023-04-19T06:27:20;77865.88;;;25.11;29.59
20955;BME280;10636;19.390;-99.256;2023-04-19T06:29:48;77867.19;;;25.10;29.55
20955;BME280;10636;19.390;-99.256;2023-04-19T06:32:16;77859.13;;;25.10;29.57
20955;BME280;10636;19.390;-99.256;2023-04-19T06:34:45;77868.47;;;25.09;29.32
20955;BME280;10636;19.390;-99.256;2023-04-19T06:37:13;77857.72;;;25.09;29.08
20955;BME280;10636;19.390;-99.256;2023-04-19T06:39:42;77860.34;;;25.07;29.39
20955;BME280;10636;19.390;-99.256;2023-04-19T06:42:10;77856.88;;;25.04;29.46
20955;BME280;10636;19.390;-99.256;2023-04-19T06:44:41;77869.00;;;25.06;29.68
20955;BME280;10636;19.390;-99.256;2023-04-19T06:47:09;77868.31;;;25.05;29.40
20955;BME280;10636;19.390;-99.256;2023-04-19T06:49:38;77870.28;;;25.04;29.49
20955;BME280;10636;19.390;-99.256;2023-04-19T06:52:06;77872.22;;;25.02;29.67
20955;BME280;10636;19.390;-99.256;2023-04-19T06:54:35;77862.78;;;25.01;29.56
20955;BME280;10636;19.390;-99.256;2023-04-19T06:57:03;77856.75;;;25.00;29.29
20955;BME280;10636;19.390;-99.256;2023-04-19T06:59:32;77859.34;;;24.98;29.42
20955;BME280;10636;19.390;-99.256;2023-04-19T07:02:06;77858.06;;;24.99;29.45
20955;BME280;10636;19.390;-99.256;2023-04-19T07:04:35;77855.97;;;24.98;29.31
20955;BME280;10636;19.390;-99.256;2023-04-19T07:07:06;77853.28;;;24.98;29.90
20955;BME280;10636;19.390;-99.256;2023-04-19T07:09:34;77854.66;;;24.99;29.81
20955;BME280;10636;19.390;-99.256;2023-04-19T07:12:03;77852.59;;;24.97;30.11
20955;BME280;10636;19.390;-99.256;2023-04-19T07:14:31;77849.91;;;24.97;29.92
20955;BME280;10636;19.390;-99.256;2023-04-19T07:17:00;77852.59;;;24.97;29.46
20955;BME280;10636;19.390;-99.256;2023-04-19T07:19:30;77843.84;;;24.97;29.61
20955;BME280;10636;19.390;-99.256;2023-04-19T07:22:00;77851.22;;;24.96;29.30
20955;BME280;10636;19.390;-99.256;2023-04-19T07:24:31;77841.19;;;24.97;29.78
20955;BME280;10636;19.390;-99.256;2023-04-19T07:26:59;77843.78;;;24.95;30.00
20955;BME280;10636;19.390;-99.256;2023-04-19T07:29:28;77843.78;;;24.95;29.42
20955;BME280;10636;19.390;-99.256;2023-04-19T07:31:57;77843.13;;;24.94;29.51
20955;BME280;10636;19.390;-99.256;2023-04-19T07:34:27;77838.97;;;24.91;29.72
20955;BME280;10636;19.390;-99.256;2023-04-19T07:36:57;77830.28;;;24.93;29.40
20955;BME280;10636;19.390;-99.256;2023-04-19T07:39:25;77828.91;;;24.92;29.89
20955;BME280;10636;19.390;-99.256;2023-04-19T07:41:56;77828.25;;;24.91;29.79
20955;BME280;10636;19.390;-99.256;2023-04-19T07:44:24;77824.88;;;24.91;29.77
20955;BME280;10636;19.390;-99.256;2023-04-19T07:46:53;77813.31;;;24.86;29.39
20955;BME280;10636;19.390;-99.256;2023-04-19T07:49:21;77818.72;;;24.88;30.02
20955;BME280;10636;19.390;-99.256;2023-04-19T07:51:50;77818.03;;;24.88;30.21
20955;BME280;10636;19.390;-99.256;2023-04-19T07:54:20;77809.94;;;24.86;30.22
20955;BME280;10636;19.390;-99.256;2023-04-19T07:56:48;77811.25;;;24.85;29.85
20955;BME280;10636;19.390;-99.256;2023-04-19T07:59:17;77819.97;;;24.85;29.93
20955;BME280;10636;19.390;-99.256;2023-04-19T08:01:45;77810.56;;;24.84;30.09
20955;BME280;10636;19.390;-99.256;2023-04-19T08:04:14;77808.56;;;24.85;29.98
20955;BME280;10636;19.390;-99.256;2023-04-19T08:06:45;77804.50;;;24.84;29.85
20955;BME280;10636;19.390;-99.256;2023-04-19T08:09:13;77805.78;;;24.83;29.70
20955;BME280;10636;19.390;-99.256;2023-04-19T08:11:43;77801.75;;;24.82;30.01
20955;BME280;10636;19.390;-99.256;2023-04-19T08:14:12;77803.72;;;24.81;30.08
20955;BME280;10636;19.390;-99.256;2023-04-19T08:16:40;77792.94;;;24.79;29.86
20955;BME280;10636;19.390;-99.256;2023-04-19T08:19:09;77798.91;;;24.77;29.86
20955;BME280;10636;19.390;-99.256;2023-04-19T08:21:37;77798.91;;;24.77;29.72
20955;BME280;10636;19.390;-99.256;2023-04-19T08:24:06;77794.84;;;24.76;29.86
20955;BME280;10636;19.390;-99.256;2023-04-19T08:26:35;77783.44;;;24.76;30.36
20955;BME280;10636;19.390;-99.256;2023-04-19T08:29:06;77785.44;;;24.75;30.09
20955;BME280;10636;19.390;-99.256;2023-04-19T08:31:34;77788.75;;;24.74;29.97
20955;BME280;10636;19.390;-99.256;2023-04-19T08:34:03;77786.66;;;24.72;29.95
20955;BME280;10636;19.390;-99.256;2023-04-19T08:36:31;77783.28;;;24.72;30.04
20955;BME280;10636;19.390;-99.256;2023-04-19T08:39:00;77782.69;;;24.73;30.14
20955;BME280;10636;19.390;-99.256;2023-04-19T08:41:29;77778.63;;;24.72;29.90
20955;BME280;10636;19.390;-99.256;2023-04-19T08:43:59;77779.91;;;24.71;29.64
20955;BME280;10636;19.390;-99.256;2023-04-19T08:46:30;77781.16;;;24.68;29.55
20955;BME280;10636;19.390;-99.256;2023-04-19T08:49:00;77773.03;;;24.66;29.72
20955;BME280;10636;19.390;-99.256;2023-04-19T08:51:29;77770.97;;;24.65;29.99
20955;BME280;10636;19.390;-99.256;2023-04-19T08:53:59;77774.97;;;24.64;29.75
20955;BME280;10636;19.390;-99.256;2023-04-19T08:56:28;77776.97;;;24.63;29.58
20955;BME280;10636;19.390;-99.256;2023-04-19T08:58:57;77772.81;;;24.60;30.26
20955;BME280;10636;19.390;-99.256;2023-04-19T09:01:26;77774.13;;;24.59;30.07
20955;BME280;10636;19.390;-99.256;2023-04-19T09:03:56;77783.56;;;24.60;29.80
20955;BME280;10636;19.390;-99.256;2023-04-19T09:06:25;77776.13;;;24.59;30.18
20955;BME280;10636;19.390;-99.256;2023-04-19T09:09:13;77776.81;;;24.59;29.71
20955;BME280;10636;19.390;-99.256;2023-04-19T09:11:42;77773.44;;;24.59;30.21
20955;BME280;10636;19.390;-99.256;2023-04-19T09:14:12;77773.44;;;24.59;30.09
20955;BME280;10636;19.390;-99.256;2023-04-19T09:16:41;77776.03;;;24.57;29.56
20955;BME280;10636;19.390;-99.256;2023-04-19T09:19:12;77764.50;;;24.52;29.91
20955;BME280;10636;19.390;-99.256;2023-04-19T09:21:41;77767.25;;;24.54;29.67
20955;BME280;10636;19.390;-99.256;2023-04-19T09:24:10;77769.94;;;24.54;29.77
20955;BME280;10636;19.390;-99.256;2023-04-19T09:26:39;77775.91;;;24.52;30.15
20955;BME280;10636;19.390;-99.256;2023-04-19T09:29:20;77765.88;;;24.53;29.70
20955;BME280;10636;19.390;-99.256;2023-04-19T09:31:56;77771.94;;;24.54;29.92
20955;BME280;10636;19.390;-99.256;2023-04-19T09:34:28;77772.53;;;24.52;29.76
20955;BME280;10636;19.390;-99.256;2023-04-19T09:36:57;77764.41;;;24.50;29.67
20955;BME280;10636;19.390;-99.256;2023-04-19T09:39:30;77764.41;;;24.50;29.47
20955;BME280;10636;19.390;-99.256;2023-04-19T09:42:01;77767.72;;;24.48;29.77
20955;BME280;10636;19.390;-99.256;2023-04-19T09:44:30;77766.25;;;24.45;30.13
20955;BME280;10636;19.390;-99.256;2023-04-19T09:47:00;77768.34;;;24.47;30.01
20955;BME280;10636;19.390;-99.256;2023-04-19T09:49:30;77765.56;;;24.45;29.82
20955;BME280;10636;19.390;-99.256;2023-04-19T09:51:59;77770.25;;;24.44;30.03
20955;BME280;10636;19.390;-99.256;2023-04-19T09:54:27;77778.22;;;24.42;29.54
20955;BME280;10636;19.390;-99.256;2023-04-19T09:56:57;77776.16;;;24.41;29.91
20955;BME280;10636;19.390;-99.256;2023-04-19T09:59:26;77785.50;;;24.40;29.88
20955;BME280;10636;19.390;-99.256;2023-04-19T10:01:55;77791.47;;;24.38;30.00
20955;BME280;10636;19.390;-99.256;2023-04-19T10:04:24;77789.47;;;24.39;29.91
20955;BME280;10636;19.390;-99.256;2023-04-19T10:06:55;77786.75;;;24.37;30.15
20955;BME280;10636;19.390;-99.256;2023-04-19T10:09:24;77796.78;;;24.36;29.44
20955;BME280;10636;19.390;-99.256;2023-04-19T10:11:53;77790.59;;;24.34;29.77
20955;BME280;10636;19.390;-99.256;2023-04-19T10:14:24;77795.38;;;24.35;29.79
20955;BME280;10636;19.390;-99.256;2023-04-19T10:16:53;77797.28;;;24.33;30.13
20955;BME280;10636;19.390;-99.256;2023-04-19T10:19:24;77789.84;;;24.31;30.20
20955;BME280;10636;19.390;-99.256;2023-04-19T10:21:56;77794.59;;;24.33;29.63
20955;BME280;10636;19.390;-99.256;2023-04-19T10:24:25;77797.28;;;24.33;29.86
20955;BME280;10636;19.390;-99.256;2023-04-19T10:27:11;77802.63;;;24.33;29.79
20955;BME280;10636;19.390;-99.256;2023-04-19T10:29:59;77793.22;;;24.32;29.47
20955;BME280;10636;19.390;-99.256;2023-04-19T10:32:36;77790.38;;;24.27;30.21
20955;BME280;10636;19.390;-99.256;2023-04-19T10:35:08;77789.09;;;24.29;29.67
20955;BME280;10636;19.390;-99.256;2023-04-19T10:37:40;77797.75;;;24.27;29.98
20955;BME280;10636;19.390;-99.256;2023-04-19T10:40:09;77790.38;;;24.27;29.88
20955;BME280;10636;19.390;-99.256;2023-04-19T10:43:15;77792.28;;;24.25;30.22
20955;BME280;10636;19.390;-99.256;2023-04-19T10:45:44;77798.28;;;24.23;30.31
20955;BME280;10636;19.390;-99.256;2023-04-19T10:48:39;77800.88;;;24.21;30.08
20955;BME280;10636;19.390;-99.256;2023-04-19T10:51:14;77790.75;;;24.20;30.02
20955;BME280;10636;19.390;-99.256;2023-04-19T10:53:50;77791.31;;;24.16;30.37
20955;BME280;10636;19.390;-99.256;2023-04-19T10:56:20;77791.38;;;24.18;30.50
20955;BME280;10636;19.390;-99.256;2023-04-19T10:59:14;77790.69;;;24.18;30.32
20955;BME280;10636;19.390;-99.256;2023-04-19T11:01:53;77800.66;;;24.15;30.01
20955;BME280;10636;19.390;-99.256;2023-04-19T11:04:36;77789.94;;;24.15;30.18
20955;BME280;10636;19.390;-99.256;2023-04-19T11:07:12;77783.88;;;24.15;30.45
20955;BME280;10636;19.390;-99.256;2023-04-19T11:09:46;77792.53;;;24.13;30.37
20955;BME280;10636;19.390;-99.256;2023-04-19T11:12:18;77789.22;;;24.15;30.55
20955;BME280;10636;19.390;-99.256;2023-04-19T11:14:50;77801.25;;;24.14;30.61
20955;BME280;10636;19.390;-99.256;2023-04-19T11:17:20;77796.00;;;24.16;30.01
20955;BME280;10636;19.390;-99.256;2023-04-19T11:19:56;77789.94;;;24.15;29.92
20955;BME280;10636;19.390;-99.256;2023-04-19T11:22:29;77796.59;;;24.14;30.34
20955;BME280;10636;19.390;-99.256;2023-04-19T11:25:07;77795.31;;;24.15;30.06
20955;BME280;10636;19.390;-99.256;2023-04-19T11:27:36;77801.34;;;24.16;30.68
20955;BME280;10636;19.390;-99.256;2023-04-19T11:30:06;77806.03;;;24.15;30.20
20955;BME280;10636;19.390;-99.256;2023-04-19T11:32:35;77802.72;;;24.17;30.80
20955;BME280;10636;19.390;-99.256;2023-04-19T11:35:05;77797.81;;;24.11;30.32
20955;BME280;10636;19.390;-99.256;2023-04-19T11:37:35;77812.66;;;24.14;30.82
20955;BME280;10636;19.390;-99.256;2023-04-19T11:40:07;77812.59;;;24.12;30.70
20955;BME280;10636;19.390;-99.256;2023-04-19T11:42:35;77809.28;;;24.14;30.19
20955;BME280;10636;19.390;-99.256;2023-04-19T11:45:05;77814.59;;;24.12;31.07
20955;BME280;10636;19.390;-99.256;2023-04-19T11:47:46;77811.22;;;24.11;31.13
20955;BME280;10636;19.390;-99.256;2023-04-19T11:50:32;77817.25;;;24.12;30.41
20955;BME280;10636;19.390;-99.256;2023-04-19T11:53:10;77828.66;;;24.12;30.68
20955;BME280;10636;19.390;-99.256;2023-04-19T11:55:44;77825.38;;;24.14;30.69
20955;BME280;10636;19.390;-99.256;2023-04-19T11:58:26;77829.88;;;24.09;30.69
20955;BME280;10636;19.390;-99.256;2023-04-19T12:00:57;77834.03;;;24.12;30.90
20955;BME280;10636;19.390;-99.256;2023-04-19T12:03:30;77838.00;;;24.11;30.73
20955;BME280;10636;19.390;-99.256;2023-04-19T12:06:00;77841.31;;;24.10;30.49
20955;BME280;10636;19.390;-99.256;2023-04-19T12:08:34;77837.91;;;24.09;30.80
20955;BME280;10636;19.390;-99.256;2023-04-19T12:11:05;77845.97;;;24.09;31.39
20955;BME280;10636;19.390;-99.256;2023-04-19T12:13:37;77840.59;;;24.09;31.30
20955;BME280;10636;19.390;-99.256;2023-04-19T12:16:06;77831.13;;;24.06;30.94
20955;BME280;10636;19.390;-99.256;2023-04-19T12:18:45;77841.16;;;24.06;31.31
20955;BME280;10636;19.390;-99.256;2023-04-19T12:21:25;77849.78;;;24.04;31.08
20955;BME280;10636;19.390;-99.256;2023-04-19T12:23:55;77850.56;;;24.07;31.50
20955;BME280;10636;19.390;-99.256;2023-04-19T12:26:26;77857.81;;;24.04;31.05
20955;BME280;10636;19.390;-99.256;2023-04-19T12:28:55;77859.13;;;24.03;31.01
20955;BME280;10636;19.390;-99.256;2023-04-19T12:31:24;77865.16;;;24.04;31.67
20955;BME280;10636;19.390;-99.256;2023-04-19T12:33:53;77854.22;;;23.97;31.54
20955;BME280;10636;19.390;-99.256;2023-04-19T12:36:21;77865.84;;;24.04;31.11
20955;BME280;10636;19.390;-99.256;2023-04-19T12:38:50;77860.34;;;24.00;31.07
20955;BME280;10636;19.390;-99.256;2023-04-19T12:41:18;77861.56;;;23.97;31.52
20955;BME280;10636;19.390;-99.256;2023-04-19T12:43:48;77874.22;;;23.94;31.15
20955;BME280;10636;19.390;-99.256;2023-04-19T12:46:17;77870.56;;;23.88;31.59
20955;BME280;10636;19.390;-99.256;2023-04-19T12:48:45;77882.59;;;23.87;31.13
20955;BME280;10636;19.390;-99.256;2023-04-19T12:51:15;77886.50;;;23.84;31.75
20955;BME280;10636;19.390;-99.256;2023-04-19T12:53:47;77874.41;;;23.83;31.68
20955;BME280;10636;19.390;-99.256;2023-04-19T12:56:16;77881.75;;;23.82;31.52